createdAt,value
2017-09-07T00:00:19.235Z,77.65
2017-09-07T00:01:25.655Z,77.34
2017-09-07T00:02:32.642Z,77.75
2017-09-07T00:03:38.810Z,77.39
2017-09-07T00:04:45.080Z,78.07
2017-09-07T00:05:52.080Z,78.04
2017-09-07T00:06:58.548Z,77.75
2017-09-07T00:08:04.756Z,77.51
2017-09-07T00:09:11.431Z,77.61
2017-09-07T00:10:17.870Z,77.82
2017-09-07T00:11:24.841Z,78.09
2017-09-07T00:12:32.545Z,78.19
2017-09-07T00:13:38.750Z,79.12
2017-09-07T00:14:45.172Z,78.61
2017-09-07T00:15:52.015Z,78.42
2017-09-07T00:16:58.200Z,78.01
2017-09-07T00:18:04.504Z,78.13
2017-09-07T00:19:10.972Z,78.02
2017-09-07T00:20:17.369Z,78.02
2017-09-07T00:21:23.591Z,78.00
2017-09-07T00:22:29.699Z,77.82
2017-09-07T00:23:35.957Z,78.39
2017-09-07T00:24:42.284Z,78.53
2017-09-07T00:25:49.514Z,78.27
2017-09-07T00:26:55.637Z,78.42
2017-09-07T00:28:02.309Z,78.71
2017-09-07T00:29:08.627Z,78.55
2017-09-07T00:30:15.173Z,78.56
2017-09-07T00:31:21.891Z,78.65
2017-09-07T00:32:28.834Z,78.53
2017-09-07T00:33:34.944Z,78.79
2017-09-07T00:34:41.240Z,78.57
2017-09-07T00:35:47.566Z,79.12
2017-09-07T00:36:54.035Z,78.95
2017-09-07T00:38:00.319Z,79.19
2017-09-07T00:39:06.841Z,78.94
2017-09-07T00:40:13.066Z,79.08
2017-09-07T00:41:19.212Z,79.57
2017-09-07T00:42:25.595Z,79.49
2017-09-07T00:43:32.278Z,79.60
2017-09-07T00:44:38.465Z,79.89
2017-09-07T00:45:45.271Z,79.67
2017-09-07T00:46:51.585Z,79.72
2017-09-07T00:47:57.928Z,79.79
2017-09-07T00:49:04.773Z,80.08
2017-09-07T00:50:11.057Z,80.48
2017-09-07T00:51:18.496Z,80.54
2017-09-07T00:52:24.043Z,80.24
2017-09-07T00:53:29.594Z,80.77
2017-09-07T00:54:35.438Z,80.48
2017-09-07T00:55:42.407Z,80.41
2017-09-07T00:56:49.665Z,80.34
2017-09-07T00:57:56.345Z,80.26
2017-09-07T00:59:03.492Z,80.01
2017-09-07T01:00:09.101Z,80.58
2017-09-07T01:01:15.803Z,80.62
2017-09-07T01:02:24.541Z,80.61
2017-09-07T01:03:31.278Z,81.17
2017-09-07T01:04:37.730Z,81.38
2017-09-07T01:05:44.497Z,81.28
2017-09-07T01:06:51.156Z,81.17
2017-09-07T01:07:57.876Z,81.02
2017-09-07T01:09:04.598Z,80.79
2017-09-07T01:10:11.409Z,80.80
2017-09-07T01:11:18.553Z,81.03
2017-09-07T01:12:25.938Z,81.30
2017-09-07T01:13:32.058Z,81.11
2017-09-07T01:14:38.555Z,81.07
2017-09-07T01:15:44.623Z,80.89
2017-09-07T01:16:50.942Z,80.91
2017-09-07T01:17:56.954Z,81.36
2017-09-07T01:19:03.245Z,81.52
2017-09-07T01:20:08.947Z,81.77
2017-09-07T01:21:14.656Z,81.64
2017-09-07T01:22:20.767Z,81.89
2017-09-07T01:23:26.888Z,81.58
2017-09-07T01:24:32.558Z,81.68
2017-09-07T01:25:38.096Z,82.01
2017-09-07T01:26:44.688Z,82.08
2017-09-07T01:27:51.570Z,81.92
2017-09-07T01:28:57.943Z,82.15
2017-09-07T01:30:05.547Z,82.26
2017-09-07T01:31:11.958Z,82.31
2017-09-07T01:32:18.477Z,82.50
2017-09-07T01:33:25.509Z,82.97
2017-09-07T01:34:32.279Z,82.61
2017-09-07T01:35:38.538Z,82.32
2017-09-07T01:36:44.916Z,82.31
2017-09-07T01:37:51.183Z,82.54
2017-09-07T01:38:57.530Z,82.14
2017-09-07T01:40:03.740Z,82.24
2017-09-07T01:41:10.999Z,82.13
2017-09-07T01:42:17.122Z,82.01
2017-09-07T01:43:23.281Z,82.27
2017-09-07T01:44:29.535Z,82.29
2017-09-07T01:45:35.865Z,81.81
2017-09-07T01:46:42.581Z,81.50
2017-09-07T01:47:49.434Z,81.39
2017-09-07T01:48:56.581Z,81.27
2017-09-07T01:50:02.782Z,81.42
2017-09-07T01:51:09.856Z,81.59
2017-09-07T01:52:16.592Z,81.68
2017-09-07T01:53:22.848Z,81.53
2017-09-07T01:54:30.743Z,81.38
2017-09-07T01:55:37.369Z,81.28
2017-09-07T01:56:44.398Z,81.75
2017-09-07T01:57:50.595Z,81.43
2017-09-07T01:58:57.341Z,81.62
2017-09-07T02:00:04.152Z,81.50
2017-09-07T02:01:11.042Z,81.96
2017-09-07T02:02:17.189Z,82.15
2017-09-07T02:03:23.497Z,82.08
2017-09-07T02:04:31.092Z,81.96
2017-09-07T02:05:37.702Z,82.27
2017-09-07T02:06:43.860Z,82.21
2017-09-07T02:07:50.918Z,82.54
2017-09-07T02:08:58.137Z,82.24
2017-09-07T02:10:04.802Z,82.21
2017-09-07T02:11:10.989Z,82.32
2017-09-07T02:12:17.165Z,81.87
2017-09-07T02:13:23.953Z,81.71
2017-09-07T02:14:30.402Z,81.73
2017-09-07T02:15:36.927Z,82.10
2017-09-07T02:16:44.257Z,81.98
2017-09-07T02:17:50.851Z,82.23
2017-09-07T02:18:57.840Z,82.17
2017-09-07T02:20:05.029Z,82.48
2017-09-07T02:21:11.905Z,82.84
2017-09-07T02:22:19.081Z,82.78
2017-09-07T02:23:25.498Z,82.90
2017-09-07T02:24:32.112Z,82.75
2017-09-07T02:25:38.551Z,82.91
2017-09-07T02:26:44.643Z,83.04
2017-09-07T02:27:51.844Z,83.14
2017-09-07T02:28:57.976Z,83.23
2017-09-07T02:30:04.309Z,83.67
2017-09-07T02:31:10.592Z,83.65
2017-09-07T02:32:16.923Z,83.47
2017-09-07T02:33:23.632Z,83.05
2017-09-07T02:34:29.749Z,83.34
2017-09-07T02:35:35.984Z,83.10
2017-09-07T02:36:42.257Z,83.22
2017-09-07T02:37:48.903Z,82.83
2017-09-07T02:38:55.403Z,82.96
2017-09-07T02:40:01.911Z,83.86
2017-09-07T02:41:08.955Z,84.06
2017-09-07T02:42:15.347Z,84.01
2017-09-07T02:43:22.372Z,84.34
2017-09-07T02:44:28.702Z,83.85
2017-09-07T02:45:36.753Z,83.71
2017-09-07T02:46:43.272Z,84.05
2017-09-07T02:47:50.300Z,84.25
2017-09-07T02:48:56.713Z,84.17
2017-09-07T02:50:03.030Z,84.04
2017-09-07T02:51:09.552Z,84.26
2017-09-07T02:52:16.148Z,84.27
2017-09-07T02:53:22.871Z,84.89
2017-09-07T02:54:29.380Z,84.66
2017-09-07T02:55:35.676Z,85.30
2017-09-07T02:56:42.137Z,84.87
2017-09-07T02:57:49.115Z,84.94
2017-09-07T02:58:56.382Z,84.95
2017-09-07T03:00:03.915Z,84.77
2017-09-07T03:01:11.468Z,85.16
2017-09-07T03:02:17.774Z,85.21
2017-09-07T03:03:23.968Z,85.58
2017-09-07T03:04:31.495Z,85.98
2017-09-07T03:05:38.256Z,85.90
2017-09-07T03:06:44.411Z,85.71
2017-09-07T03:07:51.073Z,85.93
2017-09-07T03:08:58.503Z,85.68
2017-09-07T03:10:04.700Z,85.66
2017-09-07T03:11:10.884Z,86.12
2017-09-07T03:12:17.027Z,85.65
2017-09-07T03:13:23.665Z,86.08
2017-09-07T03:14:29.939Z,86.23
2017-09-07T03:15:38.814Z,86.38
2017-09-07T03:16:45.007Z,86.31
2017-09-07T03:17:52.079Z,86.09
2017-09-07T03:18:59.129Z,85.99
2017-09-07T03:20:05.523Z,86.12
2017-09-07T03:21:11.715Z,86.43
2017-09-07T03:22:18.440Z,86.19
2017-09-07T03:23:25.331Z,86.01
2017-09-07T03:24:32.531Z,86.39
2017-09-07T03:25:38.929Z,86.54
2017-09-07T03:26:47.594Z,86.20
2017-09-07T03:27:54.016Z,86.50
2017-09-07T03:29:01.443Z,86.57
2017-09-07T03:30:07.886Z,87.00
2017-09-07T03:31:14.890Z,86.46
2017-09-07T03:32:21.298Z,86.42
2017-09-07T03:33:27.710Z,87.21
2017-09-07T03:34:33.979Z,86.73
2017-09-07T03:35:40.437Z,86.21
2017-09-07T03:36:47.062Z,86.19
2017-09-07T03:37:53.417Z,86.72
2017-09-07T03:38:59.571Z,86.96
2017-09-07T03:40:06.473Z,86.90
2017-09-07T03:41:13.251Z,86.72
2017-09-07T03:42:19.419Z,86.87
2017-09-07T03:43:28.291Z,86.85
2017-09-07T03:44:36.372Z,86.43
2017-09-07T03:46:01.908Z,86.00
2017-09-07T03:47:30.375Z,86.00
2017-09-07T03:48:37.963Z,86.06
2017-09-07T03:49:55.264Z,85.74
2017-09-07T03:51:03.397Z,85.55
2017-09-07T03:52:09.789Z,85.61
2017-09-07T03:53:17.190Z,85.68
2017-09-07T03:54:23.535Z,85.09
2017-09-07T03:55:30.366Z,85.01
2017-09-07T03:56:36.574Z,85.21
2017-09-07T03:57:42.766Z,84.93
2017-09-07T03:58:49.207Z,85.41
2017-09-07T03:59:56.038Z,85.50
2017-09-07T04:01:02.547Z,85.82
2017-09-07T04:02:08.756Z,86.12
2017-09-07T04:03:15.166Z,86.04
2017-09-07T04:04:21.580Z,86.20
2017-09-07T04:05:28.481Z,86.11
2017-09-07T04:06:34.816Z,85.77
2017-09-07T04:07:41.647Z,86.17
2017-09-07T04:08:49.033Z,85.93
2017-09-07T04:09:56.414Z,85.83
2017-09-07T04:11:02.553Z,85.76
2017-09-07T04:12:08.838Z,86.37
2017-09-07T04:13:16.195Z,86.20
2017-09-07T04:14:22.581Z,85.90
2017-09-07T04:15:30.133Z,86.23
2017-09-07T04:16:36.646Z,86.20
2017-09-07T04:17:43.463Z,85.67
2017-09-07T04:18:51.015Z,85.62
2017-09-07T04:19:58.235Z,85.38
2017-09-07T04:21:04.657Z,85.60
2017-09-07T04:22:11.077Z,85.61
2017-09-07T04:23:18.796Z,85.61
2017-09-07T04:24:26.051Z,85.82
2017-09-07T04:25:33.479Z,85.76
2017-09-07T04:26:39.789Z,85.37
2017-09-07T04:27:47.110Z,85.26
2017-09-07T04:28:53.384Z,85.16
2017-09-07T04:30:01.084Z,84.76
2017-09-07T04:31:10.255Z,84.63
2017-09-07T04:32:16.466Z,84.49
2017-09-07T04:33:23.779Z,84.42
2017-09-07T04:34:30.952Z,84.59
2017-09-07T04:35:37.849Z,84.57
2017-09-07T04:36:44.072Z,84.88
2017-09-07T04:37:50.363Z,84.66
2017-09-07T04:38:57.309Z,84.88
2017-09-07T04:40:04.331Z,85.21
2017-09-07T04:41:10.294Z,85.45
2017-09-07T04:42:19.219Z,85.44
2017-09-07T04:43:25.820Z,85.41
2017-09-07T04:44:32.150Z,85.25
2017-09-07T04:45:38.755Z,85.43
2017-09-07T04:46:45.802Z,85.63
2017-09-07T04:47:53.177Z,86.17
2017-09-07T04:48:59.339Z,85.92
2017-09-07T04:50:05.695Z,85.91
2017-09-07T04:51:13.285Z,85.72
2017-09-07T04:52:19.560Z,85.58
2017-09-07T04:53:25.893Z,85.36
2017-09-07T04:54:32.530Z,85.93
2017-09-07T04:55:40.373Z,86.12
2017-09-07T04:56:47.533Z,85.91
2017-09-07T04:57:54.132Z,85.94
2017-09-07T04:59:00.645Z,85.73
2017-09-07T05:00:06.787Z,84.75
2017-09-07T05:01:12.827Z,85.77
2017-09-07T05:02:19.166Z,86.15
2017-09-07T05:03:25.566Z,85.55
2017-09-07T05:04:31.766Z,85.19
2017-09-07T05:05:38.111Z,85.27
2017-09-07T05:06:44.623Z,84.99
2017-09-07T05:07:50.924Z,85.89
2017-09-07T05:08:57.647Z,85.70
2017-09-07T05:10:03.949Z,85.26
2017-09-07T05:11:10.218Z,84.92
2017-09-07T05:12:16.304Z,85.22
2017-09-07T05:13:22.441Z,85.11
2017-09-07T05:14:29.018Z,84.94
2017-09-07T05:15:36.176Z,84.58
2017-09-07T05:16:42.998Z,84.30
2017-09-07T05:17:49.272Z,84.45
2017-09-07T05:18:55.370Z,84.53
2017-09-07T05:20:01.924Z,84.57
2017-09-07T05:21:09.027Z,83.92
2017-09-07T05:22:15.167Z,83.94
2017-09-07T05:23:21.834Z,84.29
2017-09-07T05:24:28.068Z,84.41
2017-09-07T05:25:34.747Z,84.33
2017-09-07T05:26:43.398Z,83.82
2017-09-07T05:27:51.105Z,83.31
2017-09-07T05:28:58.121Z,83.50
2017-09-07T05:30:05.485Z,83.36
2017-09-07T05:31:12.782Z,83.20
2017-09-07T05:32:19.821Z,83.33
2017-09-07T05:33:27.033Z,83.59
2017-09-07T05:34:33.971Z,83.41
2017-09-07T05:35:41.059Z,83.42
2017-09-07T05:36:47.318Z,83.39
2017-09-07T05:37:54.873Z,83.33
2017-09-07T05:39:01.255Z,83.18
2017-09-07T05:40:07.568Z,83.37
2017-09-07T05:41:13.767Z,83.69
2017-09-07T05:42:20.215Z,84.00
2017-09-07T05:43:26.535Z,84.38
2017-09-07T05:44:34.296Z,84.77
2017-09-07T05:45:40.270Z,86.07
2017-09-07T05:46:46.954Z,86.32
2017-09-07T05:47:54.019Z,86.73
2017-09-07T05:49:00.846Z,87.62
2017-09-07T05:50:07.784Z,87.85
2017-09-07T05:51:14.092Z,87.97
2017-09-07T05:52:20.419Z,88.48
2017-09-07T05:53:27.854Z,89.02
2017-09-07T05:54:35.075Z,88.91
2017-09-07T05:55:41.367Z,89.71
2017-09-07T05:56:48.507Z,89.98
2017-09-07T05:57:56.146Z,90.80
2017-09-07T05:59:03.021Z,91.69
2017-09-07T06:00:09.390Z,91.50
2017-09-07T06:01:15.338Z,91.24
2017-09-07T06:02:21.652Z,90.97
2017-09-07T06:03:28.013Z,91.19
2017-09-07T06:04:34.323Z,92.11
2017-09-07T06:05:42.037Z,91.87
2017-09-07T06:06:50.268Z,91.59
2017-09-07T06:07:56.632Z,92.37
2017-09-07T06:09:04.557Z,92.64
2017-09-07T06:10:11.732Z,92.20
2017-09-07T06:11:18.300Z,92.93
2017-09-07T06:12:24.656Z,92.24
2017-09-07T06:13:31.881Z,91.96
2017-09-07T06:14:38.778Z,91.98
2017-09-07T06:15:46.740Z,91.17
2017-09-07T06:16:52.936Z,90.76
2017-09-07T06:17:59.005Z,90.88
2017-09-07T06:19:06.546Z,91.42
2017-09-07T06:20:15.874Z,90.51
2017-09-07T06:21:23.128Z,90.92
2017-09-07T06:22:30.283Z,90.17
2017-09-07T06:23:37.117Z,90.88
2017-09-07T06:24:43.407Z,91.02
2017-09-07T06:25:49.768Z,90.39
2017-09-07T06:26:56.015Z,89.98
2017-09-07T06:28:02.209Z,89.31
2017-09-07T06:29:08.397Z,89.43
2017-09-07T06:30:14.851Z,89.94
2017-09-07T06:31:23.105Z,88.64
2017-09-07T06:32:29.498Z,89.18
2017-09-07T06:33:36.523Z,88.94
2017-09-07T06:34:44.093Z,88.79
2017-09-07T06:35:50.601Z,88.47
2017-09-07T06:36:57.018Z,88.52
2017-09-07T06:38:03.313Z,87.93
2017-09-07T06:39:09.852Z,88.07
2017-09-07T06:40:16.079Z,87.62
2017-09-07T06:41:22.982Z,86.76
2017-09-07T06:42:29.193Z,85.51
2017-09-07T06:43:36.220Z,85.33
2017-09-07T06:44:42.424Z,83.97
2017-09-07T06:45:48.628Z,84.47
2017-09-07T06:46:55.877Z,85.03
2017-09-07T06:48:02.206Z,85.54
2017-09-07T06:49:09.493Z,86.20
2017-09-07T06:50:16.682Z,85.51
2017-09-07T06:51:22.767Z,84.71
2017-09-07T06:52:29.333Z,83.71
2017-09-07T06:53:35.486Z,83.46
2017-09-07T06:54:41.900Z,83.81
2017-09-07T06:55:49.983Z,81.65
2017-09-07T06:56:58.892Z,82.57
2017-09-07T06:58:06.877Z,82.98
2017-09-07T06:59:13.942Z,82.90
2017-09-07T07:00:20.305Z,82.82
2017-09-07T07:01:27.936Z,82.39
2017-09-07T07:02:35.111Z,82.70
2017-09-07T07:03:41.360Z,82.32
2017-09-07T07:04:48.037Z,83.27
2017-09-07T07:05:55.115Z,81.27
2017-09-07T07:07:01.766Z,81.41
2017-09-07T07:08:07.932Z,81.88
2017-09-07T07:09:14.931Z,81.75
2017-09-07T07:10:21.935Z,81.00
2017-09-07T07:11:27.928Z,80.26
2017-09-07T07:12:37.420Z,79.96
2017-09-07T07:13:43.634Z,79.84
2017-09-07T07:14:50.441Z,79.23
2017-09-07T07:15:57.392Z,79.19
2017-09-07T07:17:03.575Z,78.35
2017-09-07T07:18:09.806Z,77.40
2017-09-07T07:19:15.909Z,77.65
2017-09-07T07:20:22.452Z,76.79
2017-09-07T07:21:29.094Z,75.75
2017-09-07T07:22:36.169Z,77.35
2017-09-07T07:23:42.400Z,78.08
2017-09-07T07:24:49.298Z,78.10
2017-09-07T07:25:55.903Z,78.70
2017-09-07T07:27:02.031Z,77.43
2017-09-07T07:28:08.862Z,77.62
2017-09-07T07:29:14.970Z,78.55
2017-09-07T07:30:22.827Z,79.87
2017-09-07T07:31:28.889Z,79.65
2017-09-07T07:32:35.331Z,80.50
2017-09-07T07:33:41.948Z,80.12
2017-09-07T07:34:48.864Z,80.49
2017-09-07T07:35:55.785Z,81.18
2017-09-07T07:37:03.192Z,81.46
2017-09-07T07:38:09.777Z,82.85
2017-09-07T07:39:17.873Z,84.03
2017-09-07T07:40:24.835Z,83.91
2017-09-07T07:41:31.096Z,83.84
2017-09-07T07:42:37.668Z,83.92
2017-09-07T07:43:44.998Z,84.42
2017-09-07T07:44:51.671Z,84.83
2017-09-07T07:45:58.131Z,85.31
2017-09-07T07:47:05.265Z,84.74
2017-09-07T07:48:11.886Z,84.10
2017-09-07T07:49:18.812Z,84.00
2017-09-07T07:50:26.197Z,82.53
2017-09-07T07:51:32.472Z,82.47
2017-09-07T07:52:38.862Z,81.51
2017-09-07T07:53:45.467Z,81.96
2017-09-07T07:54:51.766Z,80.80
2017-09-07T07:55:58.316Z,82.08
2017-09-07T07:57:04.549Z,81.75
2017-09-07T07:58:11.021Z,81.72
2017-09-07T07:59:18.641Z,81.14
2017-09-07T08:00:26.079Z,81.43
2017-09-07T08:01:32.311Z,81.42
2017-09-07T08:02:38.557Z,81.79
2017-09-07T08:03:45.351Z,82.06
2017-09-07T08:04:51.564Z,82.41
2017-09-07T08:05:57.889Z,82.66
2017-09-07T08:07:05.249Z,82.19
2017-09-07T08:08:11.842Z,81.96
2017-09-07T08:09:18.728Z,81.61
2017-09-07T08:10:25.078Z,80.44
2017-09-07T08:11:31.244Z,79.57
2017-09-07T08:12:37.796Z,78.20
2017-09-07T08:13:44.735Z,78.14
2017-09-07T08:14:50.928Z,78.74
2017-09-07T08:15:58.788Z,78.27
2017-09-07T08:17:05.498Z,78.60
2017-09-07T08:18:11.832Z,78.35
2017-09-07T08:19:18.340Z,76.49
2017-09-07T08:20:24.657Z,76.65
2017-09-07T08:21:31.275Z,76.25
2017-09-07T08:22:38.180Z,75.68
2017-09-07T08:23:45.325Z,74.63
2017-09-07T08:24:51.646Z,74.31
2017-09-07T08:25:58.181Z,74.62
2017-09-07T08:27:05.912Z,74.73
2017-09-07T08:28:12.840Z,76.04
2017-09-07T08:29:19.075Z,76.38
2017-09-07T08:30:25.301Z,77.84
2017-09-07T08:31:32.880Z,76.70
2017-09-07T08:32:40.214Z,75.88
2017-09-07T08:33:46.420Z,75.61
2017-09-07T08:34:53.151Z,75.32
2017-09-07T08:35:59.061Z,74.37
2017-09-07T08:37:05.482Z,74.86
2017-09-07T08:38:11.896Z,74.82
2017-09-07T08:39:18.840Z,74.35
2017-09-07T08:40:25.424Z,74.55
2017-09-07T08:41:32.572Z,74.53
2017-09-07T08:42:38.880Z,75.61
2017-09-07T08:43:45.432Z,74.47
2017-09-07T08:44:52.736Z,74.54
2017-09-07T08:45:58.884Z,73.27
2017-09-07T08:47:05.273Z,73.03
2017-09-07T08:48:13.004Z,74.24
2017-09-07T08:49:19.895Z,73.35
2017-09-07T08:50:26.459Z,73.16
2017-09-07T08:51:33.765Z,71.90
2017-09-07T08:52:39.983Z,71.49
2017-09-07T08:53:46.184Z,71.64
2017-09-07T08:54:52.629Z,71.91
2017-09-07T08:55:59.110Z,71.05
2017-09-07T08:57:05.531Z,72.44
2017-09-07T08:58:11.868Z,72.88
2017-09-07T08:59:18.173Z,72.15
2017-09-07T09:00:24.975Z,71.49
2017-09-07T09:01:31.501Z,71.04
2017-09-07T09:02:37.710Z,68.46
2017-09-07T09:03:43.990Z,68.56
2017-09-07T09:04:51.601Z,69.23
2017-09-07T09:05:58.792Z,69.60
2017-09-07T09:07:05.815Z,71.47
2017-09-07T09:08:12.747Z,70.63
2017-09-07T09:09:20.271Z,70.46
2017-09-07T09:10:26.997Z,71.10
2017-09-07T09:11:34.521Z,70.77
2017-09-07T09:12:41.583Z,71.62
2017-09-07T09:13:48.281Z,71.95
2017-09-07T09:14:55.301Z,72.10
2017-09-07T09:16:01.631Z,72.55
2017-09-07T09:17:07.742Z,72.88
2017-09-07T09:18:14.975Z,71.98
2017-09-07T09:19:22.217Z,71.72
2017-09-07T09:20:28.669Z,71.53
2017-09-07T09:21:35.544Z,70.28
2017-09-07T09:22:41.735Z,69.89
2017-09-07T09:23:47.765Z,68.87
2017-09-07T09:24:54.731Z,68.24
2017-09-07T09:26:00.947Z,67.58
2017-09-07T09:27:08.302Z,68.12
2017-09-07T09:28:14.786Z,68.58
2017-09-07T09:29:20.848Z,69.17
2017-09-07T09:30:27.065Z,68.21
2017-09-07T09:31:33.790Z,67.13
2017-09-07T09:32:40.001Z,67.76
2017-09-07T09:33:46.411Z,67.76
2017-09-07T09:34:52.613Z,69.15
2017-09-07T09:35:59.118Z,69.27
2017-09-07T09:37:05.378Z,69.89
2017-09-07T09:38:11.551Z,68.40
2017-09-07T09:39:18.684Z,68.31
2017-09-07T09:40:24.793Z,69.27
2017-09-07T09:43:19.219Z,69.71
2017-09-07T09:44:25.408Z,70.55
2017-09-07T09:45:32.430Z,68.96
2017-09-07T09:46:38.578Z,69.89
2017-09-07T09:47:44.677Z,69.87
2017-09-07T09:48:50.789Z,68.75
2017-09-07T09:49:56.997Z,69.23
2017-09-07T09:51:02.853Z,69.70
2017-09-07T09:52:09.063Z,69.19
2017-09-07T09:53:15.062Z,69.08
2017-09-07T09:54:21.198Z,69.77
2017-09-07T09:55:27.326Z,68.99
2017-09-07T09:56:33.392Z,69.50
2017-09-07T09:57:39.580Z,69.68
2017-09-07T09:58:46.166Z,69.71
2017-09-07T09:59:52.391Z,68.38
2017-09-07T10:00:58.518Z,68.91
2017-09-07T10:02:04.468Z,68.64
2017-09-07T10:03:11.264Z,67.92
2017-09-07T10:04:17.736Z,67.49
2017-09-07T10:05:23.816Z,67.88
2017-09-07T10:06:29.933Z,67.71
2017-09-07T10:07:36.815Z,66.87
2017-09-07T10:08:43.264Z,68.45
2017-09-07T10:09:49.570Z,68.59
2017-09-07T10:10:55.768Z,68.74
2017-09-07T10:12:02.791Z,69.80
2017-09-07T10:13:11.214Z,71.27
2017-09-07T10:14:21.400Z,70.58
2017-09-07T10:15:30.082Z,69.81
2017-09-07T10:16:37.406Z,71.14
2017-09-07T10:17:46.991Z,70.02
2017-09-07T10:18:57.297Z,69.78
2017-09-07T10:20:04.640Z,70.63
2017-09-07T10:21:12.720Z,70.87
2017-09-07T10:22:21.449Z,71.54
2017-09-07T10:23:29.815Z,71.49
2017-09-07T10:24:37.888Z,71.20
2017-09-07T10:25:44.450Z,72.14
2017-09-07T10:26:53.837Z,72.59
2017-09-07T10:28:01.272Z,72.10
2017-09-07T10:29:08.428Z,71.48
2017-09-07T10:30:16.068Z,69.93
2017-09-07T10:31:23.944Z,70.14
2017-09-07T10:32:32.250Z,69.30
2017-09-07T10:33:39.565Z,68.52
2017-09-07T10:34:46.635Z,68.19
2017-09-07T10:35:54.382Z,68.59
2017-09-07T10:37:02.798Z,68.65
2017-09-07T10:38:10.304Z,68.06
2017-09-07T10:39:17.960Z,69.31
2017-09-07T10:40:25.982Z,67.60
2017-09-07T10:41:32.833Z,68.40
2017-09-07T10:42:40.161Z,69.15
2017-09-07T10:43:49.408Z,68.95
2017-09-07T10:44:56.620Z,70.11
2017-09-07T10:46:03.542Z,70.15
2017-09-07T10:47:11.828Z,69.33
2017-09-07T10:48:19.656Z,69.70
2017-09-07T10:49:25.988Z,69.76
2017-09-07T10:50:33.491Z,70.00
2017-09-07T10:51:41.655Z,70.10
2017-09-07T10:52:48.950Z,69.49
2017-09-07T10:53:55.123Z,68.19
2017-09-07T10:55:02.833Z,68.77
2017-09-07T10:56:11.953Z,68.79
2017-09-07T10:57:19.946Z,68.88
2017-09-07T10:58:29.054Z,68.95
2017-09-07T10:59:35.907Z,68.67
2017-09-07T11:00:42.785Z,67.80
2017-09-07T11:01:51.617Z,67.67
2017-09-07T11:02:59.051Z,67.81
2017-09-07T11:04:06.208Z,69.20
2017-09-07T11:05:12.855Z,69.96
2017-09-07T11:06:19.942Z,69.62
2017-09-07T11:07:26.722Z,69.10
2017-09-07T11:08:33.992Z,68.86
2017-09-07T11:09:41.157Z,69.05
2017-09-07T11:10:48.515Z,68.44
2017-09-07T11:11:56.860Z,69.15
2017-09-07T11:13:04.961Z,68.48
2017-09-07T11:14:13.512Z,68.77
2017-09-07T11:15:22.063Z,67.97
2017-09-07T11:16:29.532Z,68.57
2017-09-07T11:17:36.011Z,68.76
2017-09-07T11:18:46.169Z,68.14
2017-09-07T11:19:57.732Z,67.94
2017-09-07T11:21:06.570Z,67.98
2017-09-07T11:22:15.235Z,68.27
2017-09-07T11:23:23.011Z,69.15
2017-09-07T11:24:30.152Z,67.53
2017-09-07T11:25:38.260Z,68.09
2017-09-07T11:26:46.273Z,67.11
2017-09-07T11:27:54.113Z,67.15
2017-09-07T11:29:02.212Z,66.63
2017-09-07T11:30:10.946Z,68.39
2017-09-07T11:31:19.714Z,66.49
2017-09-07T11:32:29.391Z,66.83
2017-09-07T11:33:37.782Z,66.79
2017-09-07T11:34:46.190Z,65.11
2017-09-07T11:35:54.488Z,64.44
2017-09-07T11:37:02.699Z,63.08
2017-09-07T11:38:10.711Z,63.87
2017-09-07T11:39:18.758Z,64.66
2017-09-07T11:40:26.186Z,64.25
2017-09-07T11:41:34.245Z,63.38
2017-09-07T11:42:42.259Z,62.50
2017-09-07T11:43:50.605Z,61.71
2017-09-07T11:44:58.216Z,61.45
2017-09-07T11:46:05.215Z,61.18
2017-09-07T11:47:12.467Z,61.54
2017-09-07T11:48:20.111Z,61.08
2017-09-07T11:49:26.731Z,61.11
2017-09-07T11:50:34.081Z,59.83
2017-09-07T11:51:41.663Z,59.29
2017-09-07T11:52:49.120Z,60.31
2017-09-07T11:53:56.003Z,59.87
2017-09-07T11:55:03.194Z,60.45
2017-09-07T11:56:12.206Z,59.47
2017-09-07T11:57:19.078Z,60.54
2017-09-07T11:58:27.994Z,61.04
2017-09-07T11:59:36.252Z,60.01
2017-09-07T12:00:43.851Z,61.01
2017-09-07T12:01:51.947Z,61.97
2017-09-07T12:02:58.643Z,59.25
2017-09-07T12:04:04.738Z,59.37
2017-09-07T12:05:10.830Z,59.16
2017-09-07T12:06:17.141Z,58.32
2017-09-07T12:07:23.232Z,57.70
2017-09-07T12:08:29.280Z,57.72
2017-09-07T12:09:35.528Z,58.01
2017-09-07T12:10:41.790Z,56.74
2017-09-07T12:11:48.118Z,57.92
2017-09-07T12:12:54.647Z,58.10
2017-09-07T12:14:00.789Z,58.87
2017-09-07T12:15:06.922Z,58.30
2017-09-07T12:16:13.848Z,58.97
2017-09-07T12:17:21.647Z,59.31
2017-09-07T12:18:30.623Z,61.32
2017-09-07T12:19:39.124Z,58.54
2017-09-07T12:20:47.216Z,58.25
2017-09-07T12:21:55.243Z,59.07
2017-09-07T12:23:02.862Z,59.45
2017-09-07T12:24:10.138Z,59.88
2017-09-07T12:25:18.240Z,59.56
2017-09-07T12:26:26.090Z,60.45
2017-09-07T12:27:33.754Z,60.48
2017-09-07T12:28:42.413Z,60.14
2017-09-07T12:29:50.269Z,60.49
2017-09-07T12:30:58.699Z,60.20
2017-09-07T12:32:06.586Z,59.12
2017-09-07T12:33:13.760Z,59.73
2017-09-07T12:34:22.931Z,58.69
2017-09-07T12:35:29.559Z,58.10
2017-09-07T12:36:38.353Z,58.21
2017-09-07T12:37:44.899Z,57.71
2017-09-07T12:38:51.025Z,59.05
2017-09-07T12:39:57.135Z,58.36
2017-09-07T12:41:03.164Z,58.44
2017-09-07T12:42:09.501Z,57.21
2017-09-07T12:43:15.592Z,55.94
2017-09-07T12:44:21.785Z,57.74
2017-09-07T12:45:27.510Z,56.10
2017-09-07T12:46:35.445Z,57.64
2017-09-07T12:47:44.493Z,58.01
2017-09-07T12:48:52.876Z,57.88
2017-09-07T12:49:59.997Z,58.43
2017-09-07T12:51:07.625Z,58.79
2017-09-07T12:52:16.774Z,59.97
2017-09-07T12:53:24.520Z,59.42
2017-09-07T12:54:31.292Z,58.15
2017-09-07T12:55:40.750Z,58.42
2017-09-07T12:56:47.213Z,57.75
2017-09-07T12:57:54.482Z,58.95
2017-09-07T12:59:00.992Z,57.69
2017-09-07T13:00:07.305Z,56.14
2017-09-07T13:01:13.693Z,58.09
2017-09-07T13:02:19.759Z,57.52
2017-09-07T13:03:28.317Z,57.07
2017-09-07T13:04:34.809Z,58.76
2017-09-07T13:05:40.999Z,56.62
2017-09-07T13:06:47.480Z,57.00
2017-09-07T13:07:54.896Z,57.51
2017-09-07T13:09:01.104Z,57.27
2017-09-07T13:10:08.042Z,57.39
2017-09-07T13:11:14.038Z,58.42
2017-09-07T13:12:20.108Z,56.01
2017-09-07T13:13:26.261Z,56.00
2017-09-07T13:14:32.224Z,57.17
2017-09-07T13:15:38.370Z,57.46
2017-09-07T13:16:44.527Z,56.74
2017-09-07T13:17:51.254Z,58.12
2017-09-07T13:18:57.386Z,57.79
2017-09-07T13:20:03.603Z,57.18
2017-09-07T13:21:09.820Z,57.17
2017-09-07T13:22:16.014Z,56.80
2017-09-07T13:23:22.138Z,57.83
2017-09-07T13:24:28.233Z,56.56
2017-09-07T13:25:34.617Z,57.43
2017-09-07T13:26:40.708Z,57.55
2017-09-07T13:27:46.837Z,57.22
2017-09-07T13:28:53.021Z,57.56
2017-09-07T13:29:59.179Z,58.12
2017-09-07T13:31:05.323Z,57.79
2017-09-07T13:32:11.394Z,57.96
2017-09-07T13:33:17.571Z,57.74
2017-09-07T13:34:23.544Z,57.49
2017-09-07T13:35:29.759Z,56.59
2017-09-07T13:36:35.922Z,56.83
2017-09-07T13:37:41.695Z,57.59
2017-09-07T13:38:47.911Z,57.12
2017-09-07T13:39:54.040Z,57.38
2017-09-07T13:41:00.180Z,56.33
2017-09-07T13:42:06.273Z,56.85
2017-09-07T13:43:12.448Z,57.90
2017-09-07T13:44:19.113Z,58.11
2017-09-07T13:45:25.320Z,57.13
2017-09-07T13:46:31.498Z,57.45
2017-09-07T13:47:37.684Z,57.03
2017-09-07T13:48:43.877Z,55.85
2017-09-07T13:49:50.073Z,55.74
2017-09-07T13:50:56.238Z,55.84
2017-09-07T13:52:02.350Z,54.95
2017-09-07T13:53:08.575Z,52.77
2017-09-07T13:54:14.793Z,52.45
2017-09-07T13:55:20.938Z,52.17
2017-09-07T13:56:27.111Z,51.57
2017-09-07T13:57:33.041Z,51.58
2017-09-07T13:58:39.523Z,52.41
2017-09-07T13:59:45.607Z,53.38
2017-09-07T14:00:51.585Z,53.10
2017-09-07T14:01:57.721Z,52.48
2017-09-07T14:03:05.111Z,53.46
2017-09-07T14:04:12.747Z,53.81
2017-09-07T14:05:19.074Z,54.08
2017-09-07T14:06:25.218Z,54.75
2017-09-07T14:07:31.247Z,56.02
2017-09-07T14:08:37.370Z,55.34
2017-09-07T14:09:43.499Z,56.10
2017-09-07T14:10:49.570Z,54.96
2017-09-07T14:11:55.674Z,54.86
2017-09-07T14:13:01.809Z,56.00
2017-09-07T14:14:08.004Z,56.28
2017-09-07T14:15:14.282Z,54.94
2017-09-07T14:16:20.465Z,53.53
2017-09-07T14:17:26.613Z,53.19
2017-09-07T14:18:32.732Z,55.26
2017-09-07T14:19:38.790Z,54.31
2017-09-07T14:20:44.965Z,55.31
2017-09-07T14:21:51.056Z,54.16
2017-09-07T14:22:57.037Z,54.28